Time;durP1;ratioP1;P1;durP2;ratioP2;P2;SDS_P1;SDS_P2;PMS_P1;PMS_P2;Temp;Humidity;BMP_temperature;BMP_pressure;BME280_temperature;BME280_humidity;BME280_pressure;Samples;Min_cycle;Max_cycle;Signal;HPM_P1;HPM_P2
2024/03/24 00:00:29;;;;;;;;;;;4.20;99.90;;;;;;2067828;28;19918;-79
2024/03/24 00:01:29;;;;;;;;;;;4.20;99.90;;;;;;2059593;28;19969;-77
2024/03/24 00:02:30;;;;;;;;;;;4.20;99.90;;;;;;2051161;28;20424;-78
2024/03/24 00:03:31;;;;;;;;;;;4.20;99.90;;;;;;2043121;28;19922;-78
2024/03/24 00:04:31;;;;;;;;;;;4.20;99.90;;;;;;2047916;28;20634;-77
2024/03/24 00:05:32;;;;;;;;;;;4.20;99.90;;;;;;2068117;28;19917;-79
2024/03/24 00:06:32;;;;;;;;;;;4.20;99.90;;;;;;2067317;28;19923;-78
2024/03/24 00:07:33;;;;;;;;;;;4.20;99.90;;;;;;2056815;28;19950;-77
2024/03/24 00:08:33;;;;;;;;;;;4.20;99.90;;;;;;2057249;28;19964;-78
2024/03/24 00:09:35;;;;;;;;;;;4.20;99.90;;;;;;2054819;28;20416;-78
2024/03/24 00:10:35;;;;;;;;;;;4.20;99.90;;;;;;2059751;28;19921;-79
2024/03/24 00:11:36;;;;;;;;;;;4.20;99.90;;;;;;2067144;28;19917;-77
2024/03/24 00:12:37;;;;;;;;;;;4.10;99.90;;;;;;2066530;28;19965;-78
2024/03/24 00:13:38;;;;;;;;;;;4.10;99.90;;;;;;2058235;28;20274;-77
2024/03/24 00:14:38;;;;;;;;;;;4.10;99.90;;;;;;2067267;28;20021;-77
2024/03/24 00:15:39;;;;;;;;;;;4.10;99.90;;;;;;2059646;28;20369;-78
2024/03/24 00:16:40;;;;;;;;;;;4.10;99.90;;;;;;2058898;28;19952;-78
2024/03/24 00:17:41;;;;;;;;;;;4.10;99.90;;;;;;2059296;28;19977;-79
2024/03/24 00:18:41;;;;;;;;;;;4.10;99.90;;;;;;2067516;28;19959;-78
2024/03/24 00:19:42;;;;;;;;;;;4.10;99.90;;;;;;2059328;28;19914;-78
2024/03/24 00:20:43;;;;;;;;;;;4.20;99.90;;;;;;2059079;28;19914;-78
2024/03/24 00:21:43;;;;;;;;;;;4.10;99.90;;;;;;2067098;28;20298;-78
2024/03/24 00:22:44;;;;;;;;;;;4.10;99.90;;;;;;2059335;28;20013;-78
2024/03/24 00:23:44;;;;;;;;;;;4.10;99.90;;;;;;2059322;28;20033;-78
2024/03/24 00:24:45;;;;;;;;;;;4.10;99.90;;;;;;2052436;28;19918;-78
2024/03/24 00:25:45;;;;;;;;;;;4.10;99.90;;;;;;2048323;28;19914;-78
2024/03/24 00:26:46;;;;;;;;;;;4.10;99.90;;;;;;2067188;28;20473;-80
2024/03/24 00:27:46;;;;;;;;;;;4.10;99.90;;;;;;2067228;28;20036;-78
2024/03/24 00:28:47;;;;;;;;;;;4.20;99.90;;;;;;2066926;28;19987;-78
2024/03/24 00:29:47;;;;;;;;;;;4.20;99.90;;;;;;2067660;28;19917;-78
2024/03/24 00:30:48;;;;;;;;;;;4.20;99.90;;;;;;2068649;28;19925;-78
2024/03/24 00:31:48;;;;;;;;;;;4.20;99.90;;;;;;2059945;28;20436;-77
2024/03/24 00:32:51;;;;;;;;;;;4.30;99.90;;;;;;2059972;28;19916;-78
2024/03/24 00:33:52;;;;;;;;;;;4.30;99.90;;;;;;2051682;28;19942;-78
2024/03/24 00:34:52;;;;;;;;;;;4.40;99.90;;;;;;2058989;28;19925;-77
2024/03/24 00:35:53;;;;;;;;;;;4.40;99.90;;;;;;2059129;28;20297;-79
2024/03/24 00:36:53;;;;;;;;;;;4.30;99.90;;;;;;2065899;28;20197;-79
2024/03/24 00:37:54;;;;;;;;;;;4.30;99.90;;;;;;2052632;28;19953;-77
2024/03/24 00:38:54;;;;;;;;;;;4.40;99.90;;;;;;2050792;28;19918;-77
2024/03/24 00:39:55;;;;;;;;;;;4.40;99.90;;;;;;2052330;28;20761;-76
2024/03/24 00:40:55;;;;;;;;;;;4.40;99.90;;;;;;2060055;28;19921;-77
2024/03/24 00:41:55;;;;;;;;;;;4.40;99.90;;;;;;2068382;28;20670;-77
2024/03/24 00:42:56;;;;;;;;;;;4.40;99.90;;;;;;2060666;28;20396;-78
2024/03/24 00:43:56;;;;;;;;;;;4.40;99.90;;;;;;2059418;28;19921;-78
2024/03/24 00:44:57;;;;;;;;;;;4.40;99.90;;;;;;2067627;28;19919;-77
2024/03/24 00:45:57;;;;;;;;;;;4.40;99.90;;;;;;2068023;28;20023;-77
2024/03/24 00:46:58;;;;;;;;;;;4.40;99.90;;;;;;2059204;28;20339;-77
2024/03/24 00:47:58;;;;;;;;;;;4.40;99.90;;;;;;2068500;28;19921;-77
2024/03/24 00:48:59;;;;;;;;;;;4.40;99.90;;;;;;2068153;28;20344;-77
2024/03/24 00:50:03;;;;;;;;;;;4.40;99.90;;;;;;2068349;28;20071;-78
2024/03/24 00:51:04;;;;;;;;;;;4.40;99.90;;;;;;2061627;28;19914;-77
2024/03/24 00:52:06;;;;;;;;;;;4.40;99.90;;;;;;2060157;28;19996;-77
2024/03/24 00:53:07;;;;;;;;;;;4.40;99.90;;;;;;2059944;28;19925;-77
2024/03/24 00:54:07;;;;;;;;;;;4.40;99.90;;;;;;2068130;28;20399;-76
2024/03/24 00:55:08;;;;;;;;;;;4.50;99.90;;;;;;2067825;28;19957;-77
2024/03/24 00:56:08;;;;;;;;;;;4.40;99.90;;;;;;2059864;28;19913;-76
2024/03/24 00:57:09;;;;;;;;;;;4.50;99.90;;;;;;2068653;28;19917;-77
2024/03/24 00:58:09;;;;;;;;;;;4.40;99.90;;;;;;2060065;28;20025;-78
2024/03/24 00:59:10;;;;;;;;;;;4.50;99.90;;;;;;2052063;28;19941;-78
2024/03/24 01:00:11;;;;;;;;;;;4.40;99.90;;;;;;2066461;28;19914;-78
2024/03/24 01:01:11;;;;;;;;;;;4.50;99.90;;;;;;2058942;28;20323;-77
2024/03/24 01:02:12;;;;;;;;;;;4.40;99.90;;;;;;2059215;28;19953;-77
2024/03/24 01:03:12;;;;;;;;;;;4.40;99.90;;;;;;2058830;28;19961;-77
2024/03/24 01:04:13;;;;;;;;;;;4.40;99.90;;;;;;2059486;28;20410;-77
2024/03/24 01:05:13;;;;;;;;;;;4.40;99.90;;;;;;2058789;28;19964;-77
2024/03/24 01:06:14;;;;;;;;;;;4.30;99.90;;;;;;2066982;28;19914;-77
2024/03/24 01:07:14;;;;;;;;;;;4.30;99.90;;;;;;2051062;28;19914;-78
2024/03/24 01:08:15;;;;;;;;;;;4.30;99.90;;;;;;2059378;28;19914;-77
2024/03/24 01:09:15;;;;;;;;;;;4.30;99.90;;;;;;2067608;28;19918;-77
2024/03/24 01:10:16;;;;;;;;;;;4.30;99.90;;;;;;2067220;28;19917;-78
2024/03/24 01:11:16;;;;;;;;;;;4.20;99.90;;;;;;2059243;28;19918;-77
2024/03/24 01:12:17;;;;;;;;;;;4.20;99.90;;;;;;2059549;28;20406;-77
2024/03/24 01:13:17;;;;;;;;;;;4.20;99.90;;;;;;2058891;28;19910;-77
2024/03/24 01:14:18;;;;;;;;;;;4.20;99.90;;;;;;2058320;28;19988;-76
2024/03/24 01:15:19;;;;;;;;;;;4.20;99.90;;;;;;2058030;28;20376;-76
2024/03/24 01:16:19;;;;;;;;;;;4.10;99.90;;;;;;2064834;28;19957;-77
2024/03/24 01:17:19;;;;;;;;;;;4.10;99.90;;;;;;2067604;28;19913;-76
2024/03/24 01:18:20;;;;;;;;;;;4.10;99.90;;;;;;2067051;28;19969;-77
2024/03/24 01:19:20;;;;;;;;;;;4.10;99.90;;;;;;2051005;28;20050;-77
2024/03/24 01:20:21;;;;;;;;;;;4.10;99.90;;;;;;2054461;28;19917;-77
2024/03/24 01:21:21;;;;;;;;;;;4.10;99.90;;;;;;2059213;28;20380;-77
2024/03/24 01:22:22;;;;;;;;;;;4.10;99.90;;;;;;2067414;28;19922;-77
2024/03/24 01:23:23;;;;;;;;;;;4.00;99.90;;;;;;2061873;28;19918;-76
2024/03/24 01:24:23;;;;;;;;;;;4.00;99.90;;;;;;2064476;28;19917;-77
2024/03/24 01:25:24;;;;;;;;;;;4.00;99.90;;;;;;2069037;28;19988;-78
2024/03/24 01:26:24;;;;;;;;;;;4.00;99.90;;;;;;2062743;28;19921;-76
2024/03/24 01:27:25;;;;;;;;;;;4.00;99.90;;;;;;2064211;28;19914;-77
2024/03/24 01:28:25;;;;;;;;;;;4.00;99.90;;;;;;2053071;28;19969;-77
2024/03/24 01:29:26;;;;;;;;;;;3.90;99.90;;;;;;2052542;28;19918;-77
2024/03/24 01:30:26;;;;;;;;;;;3.90;99.90;;;;;;2058034;28;19913;-77
2024/03/24 01:31:27;;;;;;;;;;;3.90;99.90;;;;;;2051533;28;20471;-76
2024/03/24 01:32:27;;;;;;;;;;;3.90;99.90;;;;;;2068241;28;20438;-77
2024/03/24 01:33:28;;;;;;;;;;;3.90;99.90;;;;;;2067777;28;19968;-77
2024/03/24 01:34:28;;;;;;;;;;;3.80;99.90;;;;;;2067904;28;20384;-77
2024/03/24 01:35:29;;;;;;;;;;;3.80;99.90;;;;;;2067654;28;19921;-76
2024/03/24 01:36:29;;;;;;;;;;;3.80;99.90;;;;;;2059414;28;19913;-77
2024/03/24 01:37:30;;;;;;;;;;;3.80;99.90;;;;;;2058922;28;19973;-77
2024/03/24 01:38:30;;;;;;;;;;;3.80;99.90;;;;;;2058937;28;19914;-77
2024/03/24 01:39:31;;;;;;;;;;;3.80;99.90;;;;;;2054742;28;19980;-78
2024/03/24 01:40:31;;;;;;;;;;;3.80;99.90;;;;;;2048909;28;19922;-77
2024/03/24 01:41:32;;;;;;;;;;;3.70;99.90;;;;;;2058890;28;19999;-77
2024/03/24 01:42:32;;;;;;;;;;;3.70;99.90;;;;;;2050988;28;19926;-77
2024/03/24 01:43:33;;;;;;;;;;;3.70;99.90;;;;;;2059082;28;19925;-78
2024/03/24 01:44:33;;;;;;;;;;;3.70;99.90;;;;;;2058702;28;19941;-77
2024/03/24 01:45:34;;;;;;;;;;;3.60;99.90;;;;;;2059035;28;19914;-77
2024/03/24 01:46:34;;;;;;;;;;;3.60;99.90;;;;;;2075253;28;20414;-77
2024/03/24 01:47:36;;;;;;;;;;;3.60;99.90;;;;;;2058971;28;19914;-78
2024/03/24 01:48:36;;;;;;;;;;;3.60;99.90;;;;;;2050775;28;19945;-76
2024/03/24 01:49:37;;;;;;;;;;;3.60;99.90;;;;;;2059323;28;19991;-76
2024/03/24 01:50:38;;;;;;;;;;;3.60;99.90;;;;;;2066925;28;19928;-77
2024/03/24 01:51:38;;;;;;;;;;;3.60;99.90;;;;;;2050697;28;19974;-77
2024/03/24 01:52:39;;;;;;;;;;;3.50;99.90;;;;;;2050720;28;19917;-77
2024/03/24 01:53:40;;;;;;;;;;;3.50;99.90;;;;;;2050746;28;20522;-77
2024/03/24 01:54:41;;;;;;;;;;;3.50;99.90;;;;;;2055786;28;19957;-77
2024/03/24 01:55:41;;;;;;;;;;;3.50;99.90;;;;;;2058899;28;20552;-77
2024/03/24 01:56:44;;;;;;;;;;;3.40;99.90;;;;;;2060584;28;19918;-78
2024/03/24 01:57:45;;;;;;;;;;;3.40;99.90;;;;;;2068551;28;19952;-77
2024/03/24 01:58:45;;;;;;;;;;;3.40;99.90;;;;;;2060435;28;20241;-78
2024/03/24 01:59:48;;;;;;;;;;;3.40;99.90;;;;;;2068306;28;19921;-78
2024/03/24 02:00:48;;;;;;;;;;;3.30;99.90;;;;;;2068184;28;20443;-78
2024/03/24 02:01:50;;;;;;;;;;;3.30;99.90;;;;;;2060469;28;19996;-77
2024/03/24 02:02:50;;;;;;;;;;;3.30;99.90;;;;;;2051875;28;20012;-77
2024/03/24 02:03:50;;;;;;;;;;;3.30;99.90;;;;;;2052006;28;19918;-77
2024/03/24 02:04:51;;;;;;;;;;;3.30;99.90;;;;;;2060108;28;19957;-77
2024/03/24 02:05:51;;;;;;;;;;;3.30;99.90;;;;;;2068394;28;20403;-77
2024/03/24 02:06:52;;;;;;;;;;;3.30;99.90;;;;;;2069255;28;20319;-78
2024/03/24 02:07:53;;;;;;;;;;;3.30;99.90;;;;;;2060356;28;19918;-77
2024/03/24 02:08:55;;;;;;;;;;;3.30;99.90;;;;;;2052434;28;19929;-77
2024/03/24 02:09:55;;;;;;;;;;;3.30;99.90;;;;;;2060201;28;19925;-76
2024/03/24 02:10:57;;;;;;;;;;;3.30;99.90;;;;;;2063993;28;19957;-77
2024/03/24 02:11:57;;;;;;;;;;;3.30;99.90;;;;;;2063684;28;19973;-78
2024/03/24 02:12:58;;;;;;;;;;;3.30;99.90;;;;;;2060024;28;19918;-78
2024/03/24 02:13:59;;;;;;;;;;;3.20;99.90;;;;;;2062013;28;20415;-78
2024/03/24 02:14:59;;;;;;;;;;;3.20;99.90;;;;;;2068166;28;19921;-77
2024/03/24 02:16:00;;;;;;;;;;;3.20;99.90;;;;;;2063800;28;19964;-77
2024/03/24 02:17:01;;;;;;;;;;;3.20;99.90;;;;;;2060406;28;20399;-78
2024/03/24 02:18:01;;;;;;;;;;;3.20;99.90;;;;;;2063936;28;20319;-78
2024/03/24 02:19:02;;;;;;;;;;;3.20;99.90;;;;;;2064002;28;20443;-78
2024/03/24 02:20:03;;;;;;;;;;;3.20;99.90;;;;;;2060107;28;20150;-77
2024/03/24 02:21:04;;;;;;;;;;;3.20;99.90;;;;;;2068502;28;20104;-77
2024/03/24 02:22:04;;;;;;;;;;;3.20;99.90;;;;;;2056121;28;20388;-77
2024/03/24 02:23:05;;;;;;;;;;;3.10;99.90;;;;;;2060432;28;20454;-78
2024/03/24 02:24:06;;;;;;;;;;;3.10;99.90;;;;;;2065017;28;19913;-78
2024/03/24 02:25:06;;;;;;;;;;;3.20;99.90;;;;;;2059982;28;19914;-78
2024/03/24 02:26:07;;;;;;;;;;;3.20;99.90;;;;;;2067891;28;20032;-79
2024/03/24 02:27:07;;;;;;;;;;;3.20;99.90;;;;;;2060035;28;19987;-78
2024/03/24 02:28:08;;;;;;;;;;;3.20;99.90;;;;;;2051929;28;19918;-77
2024/03/24 02:29:12;;;;;;;;;;;3.30;99.90;;;;;;2055798;28;19952;-78
2024/03/24 02:30:13;;;;;;;;;;;3.30;99.90;;;;;;2051916;28;19942;-77
2024/03/24 02:31:14;;;;;;;;;;;3.30;99.90;;;;;;2056743;28;20810;-77
2024/03/24 02:32:14;;;;;;;;;;;3.30;99.90;;;;;;2059877;28;20372;-77
2024/03/24 02:33:15;;;;;;;;;;;3.30;99.90;;;;;;2067564;28;19918;-77
2024/03/24 02:34:16;;;;;;;;;;;3.30;99.90;;;;;;2055999;28;20324;-78
2024/03/24 02:35:17;;;;;;;;;;;3.30;99.90;;;;;;2052006;28;19926;-77
2024/03/24 02:36:17;;;;;;;;;;;3.20;99.90;;;;;;2057227;28;19936;-79
2024/03/24 02:37:18;;;;;;;;;;;3.20;99.90;;;;;;2068288;28;19975;-78
2024/03/24 02:38:18;;;;;;;;;;;3.20;99.90;;;;;;2060069;28;19917;-78
2024/03/24 02:39:20;;;;;;;;;;;3.20;99.90;;;;;;2064005;28;20323;-79
2024/03/24 02:40:20;;;;;;;;;;;3.10;99.90;;;;;;2068132;28;19913;-78
2024/03/24 02:41:24;;;;;;;;;;;3.10;99.90;;;;;;2067968;28;19920;-78
2024/03/24 02:42:24;;;;;;;;;;;3.10;99.90;;;;;;2064119;28;19977;-78
2024/03/24 02:43:25;;;;;;;;;;;3.10;99.90;;;;;;2062624;28;20431;-78
2024/03/24 02:44:27;;;;;;;;;;;3.20;99.90;;;;;;2058589;28;20009;-78
2024/03/24 02:45:27;;;;;;;;;;;3.20;99.90;;;;;;2059849;28;20004;-78
2024/03/24 02:46:28;;;;;;;;;;;3.20;99.90;;;;;;2067677;28;20470;-79
2024/03/24 02:47:28;;;;;;;;;;;3.20;99.90;;;;;;2067830;28;19928;-78
2024/03/24 02:48:29;;;;;;;;;;;3.10;99.90;;;;;;2067817;28;19917;-78
2024/03/24 02:49:30;;;;;;;;;;;3.10;99.90;;;;;;2056793;28;20389;-79
2024/03/24 02:50:31;;;;;;;;;;;3.10;99.90;;;;;;2059958;28;19917;-78
2024/03/24 02:51:31;;;;;;;;;;;3.10;99.90;;;;;;2047624;28;19934;-77
2024/03/24 02:52:32;;;;;;;;;;;3.10;99.90;;;;;;2059498;28;20299;-78
2024/03/24 02:53:33;;;;;;;;;;;3.00;99.90;;;;;;2067696;28;19924;-77
2024/03/24 02:54:33;;;;;;;;;;;3.10;99.90;;;;;;2067684;28;19924;-78
2024/03/24 02:55:34;;;;;;;;;;;3.10;99.90;;;;;;2067654;28;20240;-78
2024/03/24 02:56:34;;;;;;;;;;;3.10;99.90;;;;;;2059308;28;20441;-78
2024/03/24 02:57:35;;;;;;;;;;;3.00;99.90;;;;;;2067983;28;19920;-76
2024/03/24 02:58:35;;;;;;;;;;;3.00;99.90;;;;;;2059461;28;19976;-77
2024/03/24 02:59:36;;;;;;;;;;;3.10;99.90;;;;;;2051381;28;20383;-77
2024/03/24 03:00:36;;;;;;;;;;;3.00;99.90;;;;;;2067503;28;19913;-77
2024/03/24 03:01:37;;;;;;;;;;;3.10;99.90;;;;;;2068160;28;19910;-78
2024/03/24 03:02:37;;;;;;;;;;;3.10;99.90;;;;;;2068301;28;19945;-78
2024/03/24 03:03:43;;;;;;;;;;;3.10;99.90;;;;;;2059618;28;20004;-77
2024/03/24 03:04:43;;;;;;;;;;;3.10;99.90;;;;;;2060116;28;19917;-77
2024/03/24 03:05:46;;;;;;;;;;;3.10;99.90;;;;;;2059281;28;19924;-78
2024/03/24 03:06:47;;;;;;;;;;;3.10;99.90;;;;;;2059253;28;19918;-77
2024/03/24 03:07:47;;;;;;;;;;;3.20;99.90;;;;;;2067721;28;19924;-79
2024/03/24 03:08:48;;;;;;;;;;;3.20;99.90;;;;;;2059462;28;20028;-78
2024/03/24 03:09:48;;;;;;;;;;;3.20;99.90;;;;;;2051281;28;19918;-77
2024/03/24 03:10:49;;;;;;;;;;;3.20;99.90;;;;;;2059507;28;19925;-77
2024/03/24 03:11:49;;;;;;;;;;;3.20;99.90;;;;;;2067401;28;20442;-76
2024/03/24 03:12:49;;;;;;;;;;;3.20;99.90;;;;;;2067676;28;19913;-77
2024/03/24 03:13:50;;;;;;;;;;;3.20;99.90;;;;;;2067734;28;19992;-77
2024/03/24 03:14:50;;;;;;;;;;;3.10;99.90;;;;;;2067426;28;19925;-79
2024/03/24 03:15:51;;;;;;;;;;;3.10;99.90;;;;;;2067375;28;20604;-77
2024/03/24 03:16:52;;;;;;;;;;;3.10;99.90;;;;;;2051151;28;19914;-77
2024/03/24 03:17:52;;;;;;;;;;;3.10;99.90;;;;;;2059217;28;19980;-78
2024/03/24 03:18:53;;;;;;;;;;;3.10;99.90;;;;;;2068481;28;20038;-78
2024/03/24 03:19:53;;;;;;;;;;;3.10;99.90;;;;;;2068055;28;20376;-77
2024/03/24 03:20:54;;;;;;;;;;;3.00;99.90;;;;;;2067389;28;19913;-77
2024/03/24 03:21:54;;;;;;;;;;;3.00;99.90;;;;;;2059419;28;19918;-77
2024/03/24 03:22:55;;;;;;;;;;;3.00;99.90;;;;;;2059542;28;20246;-76
2024/03/24 03:23:55;;;;;;;;;;;3.00;99.90;;;;;;2059567;28;19964;-77
2024/03/24 03:24:56;;;;;;;;;;;3.00;99.90;;;;;;2067144;28;20299;-77
2024/03/24 03:25:56;;;;;;;;;;;3.00;99.90;;;;;;2059147;28;19914;-77
2024/03/24 03:26:57;;;;;;;;;;;3.00;99.90;;;;;;2063444;28;19913;-77
2024/03/24 03:27:57;;;;;;;;;;;3.00;99.90;;;;;;2067502;28;20367;-77
2024/03/24 03:28:58;;;;;;;;;;;3.00;99.90;;;;;;2067148;28;20446;-77
2024/03/24 03:29:58;;;;;;;;;;;3.00;99.90;;;;;;2059332;28;19921;-78
2024/03/24 03:30:59;;;;;;;;;;;3.00;99.90;;;;;;2057895;28;20335;-77
2024/03/24 03:32:00;;;;;;;;;;;3.00;99.90;;;;;;2059303;28;20388;-77
2024/03/24 03:33:01;;;;;;;;;;;3.10;99.90;;;;;;2055507;28;19913;-77
2024/03/24 03:34:01;;;;;;;;;;;3.20;99.90;;;;;;2059347;28;19917;-76
2024/03/24 03:35:02;;;;;;;;;;;3.30;99.90;;;;;;2051061;28;19934;-77
2024/03/24 03:36:03;;;;;;;;;;;3.30;99.90;;;;;;2051031;28;19984;-77
2024/03/24 03:37:04;;;;;;;;;;;3.40;99.90;;;;;;2059308;28;19977;-77
2024/03/24 03:38:04;;;;;;;;;;;3.40;99.90;;;;;;2058395;28;19992;-77
2024/03/24 03:39:05;;;;;;;;;;;3.50;99.90;;;;;;2057109;28;19957;-77
2024/03/24 03:40:06;;;;;;;;;;;3.60;99.90;;;;;;2053615;28;19913;-77
2024/03/24 03:41:06;;;;;;;;;;;3.60;99.90;;;;;;2051478;28;19922;-77
2024/03/24 03:42:07;;;;;;;;;;;3.60;99.90;;;;;;2057458;28;20081;-77
2024/03/24 03:43:08;;;;;;;;;;;3.60;99.90;;;;;;2049504;28;19934;-77
2024/03/24 03:44:08;;;;;;;;;;;3.60;99.90;;;;;;2059366;28;19922;-77
2024/03/24 03:45:10;;;;;;;;;;;3.60;99.90;;;;;;2067360;28;19981;-77
2024/03/24 03:46:11;;;;;;;;;;;3.60;99.90;;;;;;2059080;28;20624;-78
2024/03/24 03:47:14;;;;;;;;;;;3.60;99.90;;;;;;2051320;28;19910;-77
2024/03/24 03:48:14;;;;;;;;;;;3.60;99.90;;;;;;2067889;28;20383;-78
2024/03/24 03:49:16;;;;;;;;;;;3.60;99.90;;;;;;2067626;28;19921;-78
2024/03/24 03:50:17;;;;;;;;;;;3.50;99.90;;;;;;2067375;28;20542;-78
2024/03/24 03:51:19;;;;;;;;;;;3.50;99.90;;;;;;2067441;28;19975;-78
2024/03/24 03:52:29;;;;;;;;;;;3.50;99.90;;;;;;2055497;28;19914;-77
2024/03/24 03:53:36;;;;;;;;;;;3.50;99.90;;;;;;2062309;28;19957;-78
2024/03/24 03:54:37;;;;;;;;;;;3.40;99.90;;;;;;2052849;28;19918;-78
2024/03/24 03:55:40;;;;;;;;;;;3.40;99.90;;;;;;2067422;28;19913;-77
2024/03/24 03:56:41;;;;;;;;;;;3.30;99.90;;;;;;2067242;28;19917;-77
2024/03/24 03:57:42;;;;;;;;;;;3.30;99.90;;;;;;2067249;28;20474;-78
2024/03/24 03:58:42;;;;;;;;;;;3.30;99.90;;;;;;2067549;28;20416;-78
2024/03/24 03:59:43;;;;;;;;;;;3.20;99.90;;;;;;2055236;28;20032;-77
2024/03/24 04:00:44;;;;;;;;;;;3.20;99.90;;;;;;2053472;28;19984;-77
2024/03/24 04:01:44;;;;;;;;;;;3.20;99.90;;;;;;2059314;28;19920;-77
2024/03/24 04:02:47;;;;;;;;;;;3.30;99.90;;;;;;2059127;28;20080;-77
2024/03/24 04:03:48;;;;;;;;;;;3.30;99.90;;;;;;2059791;28;20170;-76
2024/03/24 04:04:49;;;;;;;;;;;3.30;99.90;;;;;;2067305;28;19972;-77
2024/03/24 04:05:49;;;;;;;;;;;3.30;99.90;;;;;;2067371;28;20013;-77
2024/03/24 04:06:50;;;;;;;;;;;3.30;99.90;;;;;;2075341;28;20837;-77
2024/03/24 04:07:51;;;;;;;;;;;3.30;99.90;;;;;;2067095;28;19922;-77
2024/03/24 04:08:52;;;;;;;;;;;3.30;99.90;;;;;;2067666;28;19952;-77
2024/03/24 04:09:52;;;;;;;;;;;3.30;99.90;;;;;;2068120;28;19963;-77
2024/03/24 04:10:53;;;;;;;;;;;3.40;99.90;;;;;;2068148;28;20008;-77
2024/03/24 04:11:54;;;;;;;;;;;3.40;99.90;;;;;;2068098;28;19948;-77
2024/03/24 04:12:54;;;;;;;;;;;3.40;99.90;;;;;;2062483;28;19918;-77
2024/03/24 04:13:55;;;;;;;;;;;3.30;99.90;;;;;;2062191;28;19991;-77
2024/03/24 04:14:57;;;;;;;;;;;3.40;99.90;;;;;;2066575;28;20016;-78
2024/03/24 04:15:58;;;;;;;;;;;3.30;99.90;;;;;;2059232;28;20253;-78
2024/03/24 04:16:58;;;;;;;;;;;3.30;99.90;;;;;;2043147;28;19958;-78
2024/03/24 04:17:59;;;;;;;;;;;3.30;99.90;;;;;;2059120;28;19925;-77
2024/03/24 04:19:00;;;;;;;;;;;3.30;99.90;;;;;;2070823;28;20299;-78
2024/03/24 04:20:07;;;;;;;;;;;3.20;99.90;;;;;;2071284;28;19921;-77
2024/03/24 04:21:07;;;;;;;;;;;3.20;99.90;;;;;;2066689;28;19972;-77
2024/03/24 04:22:08;;;;;;;;;;;3.20;99.90;;;;;;2067622;28;20455;-76
2024/03/24 04:23:08;;;;;;;;;;;3.30;99.90;;;;;;2067365;28;19917;-77
2024/03/24 04:24:09;;;;;;;;;;;3.30;99.90;;;;;;2067137;28;20005;-77
2024/03/24 04:25:10;;;;;;;;;;;3.30;99.90;;;;;;2047978;28;20439;-76
2024/03/24 04:26:10;;;;;;;;;;;3.30;99.90;;;;;;2053168;28;19961;-77
2024/03/24 04:27:11;;;;;;;;;;;3.30;99.90;;;;;;2067349;28;20370;-78
2024/03/24 04:28:11;;;;;;;;;;;3.40;99.90;;;;;;2058993;28;19924;-79
2024/03/24 04:29:12;;;;;;;;;;;3.40;99.90;;;;;;2059189;28;19918;-78
2024/03/24 04:30:13;;;;;;;;;;;3.40;99.90;;;;;;2050866;28;20230;-76
2024/03/24 04:31:13;;;;;;;;;;;3.40;99.90;;;;;;2059504;28;19914;-77
2024/03/24 04:32:14;;;;;;;;;;;3.40;99.90;;;;;;2067454;28;19918;-77
2024/03/24 04:33:14;;;;;;;;;;;3.40;99.90;;;;;;2064677;28;20285;-77
2024/03/24 04:34:15;;;;;;;;;;;3.40;99.90;;;;;;2056866;28;19917;-77
2024/03/24 04:35:15;;;;;;;;;;;3.40;99.90;;;;;;2065898;28;20142;-77
2024/03/24 04:36:16;;;;;;;;;;;3.30;99.90;;;;;;2059945;28;19917;-77
2024/03/24 04:37:16;;;;;;;;;;;3.30;99.90;;;;;;2060875;28;19918;-77
2024/03/24 04:38:17;;;;;;;;;;;3.30;99.90;;;;;;2066759;28;19928;-77
2024/03/24 04:39:19;;;;;;;;;;;3.30;99.90;;;;;;2050700;28;19914;-77
2024/03/24 04:40:20;;;;;;;;;;;3.30;99.90;;;;;;2051270;28;19935;-77
2024/03/24 04:41:21;;;;;;;;;;;3.30;99.90;;;;;;2051035;28;20053;-77
2024/03/24 04:42:21;;;;;;;;;;;3.30;99.90;;;;;;2059242;28;19922;-77
2024/03/24 04:43:22;;;;;;;;;;;3.40;99.90;;;;;;2069783;28;19917;-77
2024/03/24 04:44:22;;;;;;;;;;;3.40;99.90;;;;;;2068898;28;20448;-77
2024/03/24 04:45:23;;;;;;;;;;;3.40;99.90;;;;;;2059446;28;20040;-73
2024/03/24 04:46:23;;;;;;;;;;;3.40;99.90;;;;;;2067165;28;19967;-76
2024/03/24 04:47:24;;;;;;;;;;;3.40;99.90;;;;;;2072689;28;19940;-77
2024/03/24 04:48:24;;;;;;;;;;;3.40;99.90;;;;;;2066035;28;20435;-77
2024/03/24 04:49:25;;;;;;;;;;;3.40;99.90;;;;;;2066516;28;22526;-72
2024/03/24 04:50:25;;;;;;;;;;;3.40;99.90;;;;;;2065342;28;19921;-71
2024/03/24 04:51:26;;;;;;;;;;;3.30;99.90;;;;;;2067586;28;20374;-74
2024/03/24 04:52:28;;;;;;;;;;;3.30;99.90;;;;;;2066036;28;19913;-74
2024/03/24 04:53:30;;;;;;;;;;;3.30;99.90;;;;;;2067169;28;19932;-73
2024/03/24 04:54:30;;;;;;;;;;;3.30;99.90;;;;;;2066379;28;20406;-73
2024/03/24 04:55:31;;;;;;;;;;;3.20;99.90;;;;;;2065272;28;20300;-73
2024/03/24 04:56:32;;;;;;;;;;;3.20;99.90;;;;;;2066652;28;19914;-73
2024/03/24 04:57:32;;;;;;;;;;;3.20;99.90;;;;;;2067115;28;19918;-73
2024/03/24 04:58:33;;;;;;;;;;;3.20;99.90;;;;;;2058473;28;19985;-73
2024/03/24 04:59:34;;;;;;;;;;;3.30;99.90;;;;;;2054354;28;19980;-73
2024/03/24 05:00:34;;;;;;;;;;;3.20;99.90;;;;;;2066787;28;19925;-73
2024/03/24 05:01:35;;;;;;;;;;;3.20;99.90;;;;;;2066518;28;19984;-73
2024/03/24 05:02:36;;;;;;;;;;;3.20;99.90;;;;;;2058611;28;19918;-74
2024/03/24 05:03:36;;;;;;;;;;;3.20;99.90;;;;;;2066912;28;19917;-73
2024/03/24 05:04:38;;;;;;;;;;;3.20;99.90;;;;;;2067608;28;19921;-73
2024/03/24 05:05:44;;;;;;;;;;;3.30;99.90;;;;;;2067623;28;19917;-73
2024/03/24 05:06:45;;;;;;;;;;;3.40;99.90;;;;;;2065405;28;19917;-73
2024/03/24 05:07:49;;;;;;;;;;;3.40;99.90;;;;;;2064204;28;19918;-73
2024/03/24 05:08:50;;;;;;;;;;;3.50;99.90;;;;;;2066564;28;19921;-73
2024/03/24 05:09:51;;;;;;;;;;;3.50;99.90;;;;;;2067240;28;19918;-73
2024/03/24 05:10:51;;;;;;;;;;;3.60;99.90;;;;;;2067025;28;19929;-73
2024/03/24 05:11:54;;;;;;;;;;;3.60;99.90;;;;;;2066657;28;19918;-73
2024/03/24 05:12:54;;;;;;;;;;;3.60;99.90;;;;;;2067467;28;20656;-72
2024/03/24 05:13:55;;;;;;;;;;;3.70;99.90;;;;;;2067500;28;19921;-72
2024/03/24 05:14:55;;;;;;;;;;;3.70;99.90;;;;;;2066804;28;19936;-72
2024/03/24 05:15:57;;;;;;;;;;;3.80;99.90;;;;;;2066840;28;20300;-72
2024/03/24 05:16:58;;;;;;;;;;;3.80;99.90;;;;;;2066714;28;19913;-72
2024/03/24 05:17:58;;;;;;;;;;;3.90;99.90;;;;;;2067338;28;20024;-73
2024/03/24 05:19:01;;;;;;;;;;;3.90;99.90;;;;;;2067338;28;19922;-73
2024/03/24 05:20:02;;;;;;;;;;;4.00;99.90;;;;;;2067381;28;19918;-74
2024/03/24 05:21:04;;;;;;;;;;;4.00;99.90;;;;;;2067763;28;19913;-74
2024/03/24 05:22:05;;;;;;;;;;;4.10;99.90;;;;;;2067234;28;20016;-73
2024/03/24 05:23:07;;;;;;;;;;;4.10;99.90;;;;;;2066920;28;19918;-73
2024/03/24 05:24:07;;;;;;;;;;;4.10;99.90;;;;;;2066675;28;19952;-73
2024/03/24 05:25:08;;;;;;;;;;;4.20;99.90;;;;;;2067694;28;19914;-73
2024/03/24 05:26:09;;;;;;;;;;;4.20;99.90;;;;;;2063549;28;20221;-73
2024/03/24 05:27:10;;;;;;;;;;;4.30;99.90;;;;;;2066623;28;20324;-74
2024/03/24 05:28:11;;;;;;;;;;;4.30;99.90;;;;;;2062755;28;19917;-73
2024/03/24 05:29:11;;;;;;;;;;;4.30;99.90;;;;;;2066752;28;20003;-73
2024/03/24 05:30:14;;;;;;;;;;;4.30;99.90;;;;;;2067075;28;20297;-73
2024/03/24 05:31:14;;;;;;;;;;;4.40;99.90;;;;;;2063206;28;20011;-73
2024/03/24 05:32:15;;;;;;;;;;;4.40;99.90;;;;;;2067008;28;19917;-73
2024/03/24 05:33:16;;;;;;;;;;;4.40;99.90;;;;;;2066848;28;20426;-73
2024/03/24 05:34:17;;;;;;;;;;;4.40;99.90;;;;;;2066598;28;19921;-73
2024/03/24 05:35:17;;;;;;;;;;;4.40;99.90;;;;;;2066721;28;20327;-73
2024/03/24 05:36:18;;;;;;;;;;;4.40;99.90;;;;;;2058387;28;19914;-73
2024/03/24 05:37:19;;;;;;;;;;;4.50;99.90;;;;;;2050065;28;19918;-74
2024/03/24 05:38:19;;;;;;;;;;;4.50;99.90;;;;;;2058185;28;19944;-74
2024/03/24 05:39:23;;;;;;;;;;;4.50;99.90;;;;;;2066384;28;19917;-73
2024/03/24 05:40:23;;;;;;;;;;;4.50;99.90;;;;;;2066922;28;19914;-74
2024/03/24 05:41:24;;;;;;;;;;;4.50;99.90;;;;;;2066112;28;20557;-73
2024/03/24 05:42:24;;;;;;;;;;;4.50;99.90;;;;;;2066164;28;19947;-73
2024/03/24 05:43:25;;;;;;;;;;;4.50;99.90;;;;;;2067177;28;20257;-74
2024/03/24 05:44:26;;;;;;;;;;;4.60;99.90;;;;;;2066758;28;19980;-73
2024/03/24 05:45:26;;;;;;;;;;;4.60;99.90;;;;;;2067314;28;19944;-73
2024/03/24 05:46:26;;;;;;;;;;;4.60;99.90;;;;;;2066110;28;19987;-73
2024/03/24 05:47:27;;;;;;;;;;;4.60;99.90;;;;;;2066783;28;20147;-73
2024/03/24 05:48:28;;;;;;;;;;;4.60;99.90;;;;;;2067383;28;19920;-74
2024/03/24 05:49:28;;;;;;;;;;;4.60;99.90;;;;;;2066402;28;19913;-73
2024/03/24 05:50:29;;;;;;;;;;;4.70;99.90;;;;;;2066195;28;20090;-73
2024/03/24 05:51:29;;;;;;;;;;;4.70;99.90;;;;;;2066553;28;20387;-73
2024/03/24 05:52:30;;;;;;;;;;;4.70;99.90;;;;;;2066959;28;19925;-73
2024/03/24 05:53:32;;;;;;;;;;;4.70;99.90;;;;;;2066388;28;20678;-73
2024/03/24 05:54:32;;;;;;;;;;;4.70;99.90;;;;;;2066202;28;19971;-73
2024/03/24 05:55:33;;;;;;;;;;;4.70;99.90;;;;;;2066469;28;19918;-73
2024/03/24 05:56:33;;;;;;;;;;;4.80;99.90;;;;;;2067264;28;19917;-73
2024/03/24 05:57:34;;;;;;;;;;;4.80;99.90;;;;;;2067618;28;19925;-73
2024/03/24 05:58:36;;;;;;;;;;;4.80;99.90;;;;;;2066933;28;20340;-73
2024/03/24 05:59:38;;;;;;;;;;;4.80;99.90;;;;;;2067047;28;20049;-73